createdAt,value
2022-08-31T00:01:41.359Z,5.93
2022-08-31T00:04:42.529Z,6.07
2022-08-31T00:07:43.520Z,5.65
2022-08-31T00:10:47.289Z,6.38
2022-08-31T00:13:48.591Z,5.78
2022-08-31T00:16:50.278Z,6.00
2022-08-31T00:19:51.324Z,6.53
2022-08-31T00:22:52.202Z,6.47
2022-08-31T00:25:54.101Z,6.72
2022-08-31T00:28:55.309Z,7.15
2022-08-31T00:31:56.664Z,6.07
2022-08-31T00:34:57.952Z,6.63
2022-08-31T00:37:58.977Z,7.30
2022-08-31T00:41:00.992Z,7.05
2022-08-31T00:44:07.897Z,7.28
2022-08-31T00:47:10.412Z,7.95
2022-08-31T00:50:16.292Z,7.78
2022-08-31T00:53:17.616Z,7.85
2022-08-31T00:56:20.675Z,7.72
2022-08-31T00:59:24.485Z,7.03
2022-08-31T01:02:25.717Z,6.47
2022-08-31T01:05:28.688Z,6.68
2022-08-31T01:08:31.254Z,6.85
2022-08-31T01:11:34.704Z,6.22
2022-08-31T01:14:38.624Z,7.65
2022-08-31T01:17:43.294Z,7.15
2022-08-31T01:21:00.299Z,6.97
2022-08-31T01:24:04.799Z,7.68
2022-08-31T01:27:07.976Z,7.45
2022-08-31T01:30:12.735Z,7.78
2022-08-31T01:33:13.999Z,7.63
2022-08-31T01:36:17.376Z,7.97
2022-08-31T01:39:20.768Z,7.90
2022-08-31T01:42:21.915Z,7.95
2022-08-31T01:45:22.820Z,8.40
2022-08-31T01:48:25.497Z,8.82
2022-08-31T01:51:27.146Z,7.95
2022-08-31T01:54:28.335Z,8.82
2022-08-31T01:57:34.293Z,9.77
2022-08-31T02:00:56.206Z,8.30
2022-08-31T02:03:57.396Z,8.68
2022-08-31T02:07:01.145Z,7.88
2022-08-31T02:10:02.606Z,9.38
2022-08-31T02:13:06.009Z,8.75
2022-08-31T02:16:11.206Z,9.60
2022-08-31T02:19:13.253Z,9.55
2022-08-31T02:22:14.087Z,9.63
2022-08-31T02:25:18.051Z,9.73
2022-08-31T02:28:19.823Z,9.52
2022-08-31T02:31:21.386Z,9.90
2022-08-31T02:34:29.647Z,9.57
2022-08-31T02:37:31.539Z,10.88
2022-08-31T02:40:38.502Z,10.32
2022-08-31T02:43:41.117Z,11.52
2022-08-31T02:46:42.142Z,11.45
2022-08-31T02:50:10.800Z,11.77
2022-08-31T02:53:14.999Z,11.18
2022-08-31T02:56:16.733Z,8.55
2022-08-31T02:59:20.867Z,8.60
2022-08-31T03:02:42.664Z,9.13
2022-08-31T03:05:44.040Z,8.90
2022-08-31T03:08:45.879Z,8.30
2022-08-31T03:11:47.691Z,8.68
2022-08-31T03:14:48.707Z,8.15
2022-08-31T03:17:50.645Z,9.38
2022-08-31T03:20:54.400Z,8.63
2022-08-31T03:23:55.605Z,8.93
2022-08-31T03:26:57.962Z,9.05
2022-08-31T03:29:59.717Z,9.57
2022-08-31T03:33:04.135Z,9.50
2022-08-31T03:36:07.354Z,9.32
2022-08-31T03:39:08.134Z,8.63
2022-08-31T03:42:09.476Z,9.02
2022-08-31T03:45:11.384Z,8.10
2022-08-31T03:48:13.338Z,9.23
2022-08-31T03:51:20.301Z,8.95
2022-08-31T03:54:21.862Z,8.80
2022-08-31T03:57:22.596Z,9.57
2022-08-31T04:00:25.443Z,9.07
2022-08-31T04:03:33.648Z,9.32
2022-08-31T04:07:13.127Z,10.20
2022-08-31T04:10:46.181Z,9.80
2022-08-31T04:14:05.309Z,10.95
2022-08-31T04:17:13.657Z,10.43
2022-08-31T04:20:29.678Z,12.18
2022-08-31T04:23:32.060Z,12.52
2022-08-31T04:26:37.653Z,12.75
2022-08-31T04:29:39.936Z,10.25
2022-08-31T04:32:41.039Z,9.23
2022-08-31T04:35:43.261Z,8.45
2022-08-31T04:38:51.762Z,8.43
2022-08-31T04:41:52.526Z,8.95
2022-08-31T04:44:54.442Z,9.65
2022-08-31T04:47:55.407Z,9.05
2022-08-31T04:51:31.292Z,9.02
2022-08-31T04:54:33.031Z,8.52
2022-08-31T04:57:36.051Z,9.65
2022-08-31T05:00:37.384Z,9.30
2022-08-31T05:03:53.469Z,10.13
2022-08-31T05:06:54.171Z,9.77
2022-08-31T05:09:55.637Z,10.38
2022-08-31T05:12:57.709Z,10.15
2022-08-31T05:15:59.265Z,11.07
2022-08-31T05:19:01.959Z,10.57
2022-08-31T05:22:03.482Z,10.70
2022-08-31T05:25:07.974Z,11.88
2022-08-31T05:28:09.686Z,11.23
2022-08-31T05:31:10.797Z,12.10
2022-08-31T05:34:17.780Z,11.88
2022-08-31T05:37:18.915Z,11.55
2022-08-31T05:40:20.385Z,12.77
2022-08-31T05:43:23.075Z,13.35
2022-08-31T05:46:24.465Z,12.23
2022-08-31T05:49:27.894Z,11.93
2022-08-31T05:52:30.202Z,12.35
2022-08-31T05:55:31.681Z,12.93
2022-08-31T05:58:34.132Z,11.88
2022-08-31T06:01:40.368Z,11.65
2022-08-31T06:04:47.047Z,10.73
2022-08-31T06:07:48.334Z,11.00
2022-08-31T06:10:50.699Z,11.00
2022-08-31T06:13:56.562Z,11.50
2022-08-31T06:17:00.152Z,11.23
2022-08-31T06:20:02.583Z,11.40
2022-08-31T06:23:08.184Z,12.00
2022-08-31T06:26:23.086Z,10.65
2022-08-31T06:29:24.757Z,11.30
2022-08-31T06:32:26.381Z,11.88
2022-08-31T06:35:40.438Z,11.25
2022-08-31T06:39:08.042Z,10.43
2022-08-31T06:42:38.744Z,11.00
2022-08-31T06:45:42.347Z,10.18
2022-08-31T06:49:02.169Z,10.18
2022-08-31T06:52:04.061Z,10.60
2022-08-31T06:55:08.266Z,9.43
2022-08-31T06:58:53.455Z,9.73
2022-08-31T07:02:18.883Z,8.68
2022-08-31T07:05:24.555Z,8.80
2022-08-31T07:08:27.043Z,8.20
2022-08-31T07:11:44.334Z,8.30
2022-08-31T07:14:50.389Z,7.70
2022-08-31T07:17:56.519Z,8.93
2022-08-31T07:21:18.244Z,8.20
2022-08-31T07:24:25.364Z,8.82
2022-08-31T07:27:26.899Z,8.83
2022-08-31T07:30:34.408Z,8.05
2022-08-31T07:33:39.444Z,9.18
2022-08-31T07:37:00.366Z,9.00
2022-08-31T07:40:25.078Z,9.48
2022-08-31T07:43:26.864Z,8.82
2022-08-31T07:46:30.249Z,9.23
2022-08-31T07:49:31.706Z,8.98
2022-08-31T07:52:54.987Z,8.60
2022-08-31T07:56:17.776Z,8.20
2022-08-31T07:59:22.856Z,7.97
2022-08-31T08:02:25.131Z,8.93
2022-08-31T08:05:31.952Z,9.43
2022-08-31T08:09:27.056Z,10.13
2022-08-31T08:12:58.332Z,9.70
2022-08-31T08:16:23.673Z,10.05
2022-08-31T08:19:40.994Z,10.48
2022-08-31T08:22:55.388Z,9.55
2022-08-31T08:26:21.244Z,9.77
2022-08-31T08:29:44.571Z,9.82
2022-08-31T08:32:50.409Z,9.10
2022-08-31T08:36:03.262Z,8.68
2022-08-31T08:39:09.515Z,9.50
2022-08-31T08:42:17.753Z,8.90
2022-08-31T08:45:18.939Z,9.02
2022-08-31T08:48:28.286Z,8.85
2022-08-31T08:51:39.413Z,7.95
2022-08-31T08:54:46.690Z,9.20
2022-08-31T08:57:49.829Z,8.83
2022-08-31T09:00:54.970Z,8.52
2022-08-31T09:04:08.146Z,9.75
2022-08-31T09:08:32.402Z,8.80
2022-08-31T09:12:10.201Z,10.15
2022-08-31T09:15:52.602Z,9.73
2022-08-31T09:19:12.057Z,6.93
2022-08-31T09:22:14.314Z,7.55
2022-08-31T09:25:21.410Z,7.90
2022-08-31T09:28:44.957Z,6.20
2022-08-31T09:31:46.797Z,6.63
2022-08-31T09:35:09.315Z,7.10
2022-08-31T09:38:26.591Z,6.85
2022-08-31T09:41:33.200Z,7.20
2022-08-31T09:44:41.378Z,7.38
2022-08-31T09:47:56.045Z,7.03
2022-08-31T09:51:03.809Z,7.32
2022-08-31T09:54:33.719Z,7.38
2022-08-31T09:57:54.844Z,8.63
2022-08-31T10:00:55.958Z,8.30
2022-08-31T10:04:27.374Z,7.63
2022-08-31T10:07:51.534Z,8.05
2022-08-31T10:10:52.854Z,7.10
2022-08-31T10:14:04.633Z,8.25
2022-08-31T10:17:16.425Z,7.32
2022-08-31T10:20:36.116Z,7.80
2022-08-31T10:24:34.602Z,8.95
2022-08-31T10:27:50.092Z,8.63
2022-08-31T10:31:42.713Z,7.70
2022-08-31T10:35:05.848Z,8.48
2022-08-31T10:38:32.764Z,8.90
2022-08-31T10:41:44.383Z,8.98
2022-08-31T10:44:58.979Z,8.98
2022-08-31T10:48:05.122Z,9.07
2022-08-31T10:51:24.287Z,8.77
2022-08-31T10:54:40.416Z,9.15
2022-08-31T10:57:53.222Z,9.07
2022-08-31T11:01:20.145Z,8.88
2022-08-31T11:04:40.310Z,8.98
2022-08-31T11:07:58.912Z,9.88
2022-08-31T11:11:02.424Z,9.45
2022-08-31T11:17:36.395Z,11.02
2022-08-31T11:21:29.928Z,11.90
2022-08-31T11:25:03.545Z,10.93
2022-08-31T11:28:41.668Z,11.50
2022-08-31T11:31:43.705Z,12.05
2022-08-31T11:34:54.140Z,11.75
2022-08-31T11:37:56.202Z,10.98
2022-08-31T11:41:04.085Z,11.15
2022-08-31T11:44:09.393Z,10.82
2022-08-31T11:47:28.788Z,11.02
2022-08-31T11:50:55.226Z,10.18
2022-08-31T11:53:56.547Z,11.13
2022-08-31T11:56:57.647Z,10.63
2022-08-31T12:00:00.722Z,11.90
2022-08-31T12:03:09.632Z,11.05
2022-08-31T12:06:26.693Z,11.18
2022-08-31T12:10:22.979Z,10.15
2022-08-31T12:13:40.402Z,9.65
2022-08-31T12:17:22.727Z,10.18
2022-08-31T12:21:36.593Z,10.13
2022-08-31T12:25:11.795Z,10.75
2022-08-31T12:28:43.717Z,9.40
2022-08-31T12:32:10.691Z,9.52
2022-08-31T12:35:22.422Z,9.25
2022-08-31T12:38:26.600Z,9.63
2022-08-31T12:41:27.894Z,9.90
2022-08-31T12:44:39.702Z,10.32
2022-08-31T12:48:06.098Z,9.90
2022-08-31T12:51:38.849Z,10.57
2022-08-31T12:55:09.097Z,9.57
2022-08-31T12:58:43.692Z,9.82
2022-08-31T13:01:49.646Z,9.60
2022-08-31T13:04:51.460Z,10.52
2022-08-31T13:07:53.456Z,10.65
2022-08-31T13:10:54.599Z,10.23
2022-08-31T13:14:15.889Z,10.75
2022-08-31T13:17:24.145Z,10.15
2022-08-31T13:20:35.635Z,10.40
2022-08-31T13:23:46.694Z,10.85
2022-08-31T13:27:07.474Z,9.90
2022-08-31T13:30:19.167Z,10.80
2022-08-31T13:33:35.033Z,10.95
2022-08-31T13:36:59.827Z,10.98
2022-08-31T13:40:18.544Z,11.00
2022-08-31T13:43:26.892Z,10.55
2022-08-31T13:46:44.443Z,10.98
2022-08-31T13:49:48.201Z,11.38
2022-08-31T13:56:44.898Z,12.27
2022-08-31T13:59:47.538Z,11.57
2022-08-31T14:02:48.694Z,11.30
2022-08-31T14:05:59.050Z,13.20
2022-08-31T14:09:16.999Z,12.48
2022-08-31T14:12:46.181Z,13.63
2022-08-31T14:15:58.269Z,12.85
2022-08-31T14:19:00.670Z,13.70
2022-08-31T14:22:35.507Z,13.95
2022-08-31T14:25:37.628Z,13.50
2022-08-31T14:28:41.463Z,14.73
2022-08-31T14:31:55.167Z,13.10
2022-08-31T14:34:58.001Z,13.80
2022-08-31T14:37:58.923Z,15.35
2022-08-31T14:40:59.816Z,15.00
2022-08-31T14:44:09.552Z,15.75
2022-08-31T14:47:12.356Z,14.70
2022-08-31T14:50:23.642Z,15.77
2022-08-31T14:53:25.939Z,15.90
2022-08-31T14:56:33.328Z,16.90
2022-08-31T14:59:35.905Z,16.17
2022-08-31T15:02:37.236Z,16.20
2022-08-31T15:05:41.683Z,16.58
2022-08-31T15:08:42.788Z,15.25
2022-08-31T15:11:45.348Z,15.45
2022-08-31T15:14:47.451Z,15.48
2022-08-31T15:17:51.767Z,15.25
2022-08-31T15:20:53.512Z,15.50
2022-08-31T15:23:54.375Z,16.50
2022-08-31T15:26:57.895Z,15.95
2022-08-31T15:30:08.372Z,15.55
2022-08-31T15:33:10.314Z,16.20
2022-08-31T15:36:15.605Z,15.50
2022-08-31T15:39:19.053Z,15.63
2022-08-31T15:42:21.271Z,16.40
2022-08-31T15:45:23.598Z,15.05
2022-08-31T15:48:45.421Z,17.00
2022-08-31T15:51:49.127Z,16.63
2022-08-31T15:54:50.505Z,16.38
2022-08-31T15:57:54.503Z,16.75
2022-08-31T16:00:55.370Z,15.93
2022-08-31T16:03:58.749Z,16.02
2022-08-31T16:07:01.006Z,17.02
2022-08-31T16:10:11.260Z,17.23
2022-08-31T16:13:15.930Z,16.63
2022-08-31T16:16:18.551Z,17.00
2022-08-31T16:19:34.598Z,16.30
2022-08-31T16:22:37.268Z,17.35
2022-08-31T16:25:48.333Z,15.95
2022-08-31T16:28:49.634Z,16.27
2022-08-31T16:31:51.614Z,16.52
2022-08-31T16:34:52.893Z,16.27
2022-08-31T16:37:55.002Z,15.75
2022-08-31T16:41:05.099Z,17.23
2022-08-31T16:44:19.721Z,15.90
2022-08-31T16:47:21.625Z,17.98
2022-08-31T16:50:22.487Z,16.63
2022-08-31T16:53:24.659Z,15.80
2022-08-31T16:56:29.205Z,15.73
2022-08-31T16:59:30.358Z,16.63
2022-08-31T17:02:32.766Z,16.20
2022-08-31T17:05:34.183Z,16.48
2022-08-31T17:08:41.338Z,16.83
2022-08-31T17:14:52.833Z,18.25
2022-08-31T17:17:54.112Z,33.83
2022-08-31T17:20:57.521Z,28.50
2022-08-31T17:24:04.063Z,19.40
2022-08-31T17:27:09.680Z,18.40
2022-08-31T17:30:11.117Z,16.98
2022-08-31T17:33:13.227Z,15.18
2022-08-31T17:36:15.817Z,12.00
2022-08-31T17:39:20.526Z,12.48
2022-08-31T17:42:26.996Z,11.73
2022-08-31T17:45:28.478Z,11.00
2022-08-31T17:48:29.346Z,9.55
2022-08-31T17:51:34.508Z,9.50
2022-08-31T17:54:40.346Z,9.77
2022-08-31T17:57:42.452Z,9.40
2022-08-31T18:00:43.997Z,10.70
2022-08-31T18:03:45.129Z,11.68
2022-08-31T18:06:47.197Z,12.43
2022-08-31T18:09:48.524Z,11.52
2022-08-31T18:12:49.770Z,12.90
2022-08-31T18:15:51.218Z,13.23
2022-08-31T18:18:52.305Z,12.52
2022-08-31T18:21:55.648Z,14.20
2022-08-31T18:24:58.387Z,14.30
2022-08-31T18:28:03.461Z,13.38
2022-08-31T18:31:07.814Z,14.27
2022-08-31T18:34:18.379Z,13.70
2022-08-31T18:37:21.141Z,15.43
2022-08-31T18:40:40.856Z,16.35
2022-08-31T18:44:00.557Z,19.30
2022-08-31T18:47:06.460Z,18.80
2022-08-31T18:50:08.555Z,16.80
2022-08-31T18:53:11.030Z,18.48
2022-08-31T18:56:17.169Z,19.45
2022-08-31T18:59:20.505Z,18.15
2022-08-31T19:02:23.069Z,19.67
2022-08-31T19:05:24.802Z,20.15
2022-08-31T19:08:27.866Z,20.42
2022-08-31T19:11:28.981Z,20.90
2022-08-31T19:14:37.375Z,19.45
2022-08-31T19:17:43.306Z,20.92
2022-08-31T19:20:45.230Z,22.45
2022-08-31T19:23:48.355Z,22.00
2022-08-31T19:26:59.276Z,22.02
2022-08-31T19:30:00.606Z,23.38
2022-08-31T19:33:06.023Z,21.67
2022-08-31T19:36:07.529Z,21.63
2022-08-31T19:39:12.395Z,22.65
2022-08-31T19:42:15.276Z,21.88
2022-08-31T19:45:23.296Z,20.23
2022-08-31T19:48:24.601Z,20.00
2022-08-31T19:51:28.542Z,18.48
2022-08-31T19:54:38.143Z,16.05
2022-08-31T19:57:39.986Z,14.55
2022-08-31T20:00:43.240Z,14.75
2022-08-31T20:03:46.107Z,14.38
2022-08-31T20:06:49.419Z,13.70
2022-08-31T20:09:53.553Z,13.85
2022-08-31T20:12:56.309Z,13.10
2022-08-31T20:15:57.365Z,13.27
2022-08-31T20:19:00.125Z,13.52
2022-08-31T20:22:08.048Z,14.93
2022-08-31T20:25:18.770Z,13.50
2022-08-31T20:28:27.147Z,12.27
2022-08-31T20:31:28.575Z,12.57
2022-08-31T20:34:30.071Z,13.00
2022-08-31T20:37:31.891Z,13.02
2022-08-31T20:40:37.465Z,13.10
2022-08-31T20:43:38.567Z,13.30
2022-08-31T20:47:17.928Z,12.98
2022-08-31T20:50:19.040Z,13.93
2022-08-31T20:53:24.951Z,13.38
2022-08-31T20:56:41.847Z,13.60
2022-08-31T20:59:42.677Z,13.30
2022-08-31T21:02:44.264Z,13.23
2022-08-31T21:05:45.526Z,14.63
2022-08-31T21:08:46.778Z,14.48
2022-08-31T21:11:48.456Z,15.98
2022-08-31T21:14:49.525Z,15.02
2022-08-31T21:17:50.957Z,16.27
2022-08-31T21:20:52.244Z,16.55
2022-08-31T21:23:52.971Z,17.92
2022-08-31T21:26:59.307Z,15.77
2022-08-31T21:30:03.703Z,15.70
2022-08-31T21:33:05.048Z,15.13
2022-08-31T21:36:11.964Z,15.10
2022-08-31T21:39:18.233Z,16.67
2022-08-31T21:42:19.333Z,16.27
2022-08-31T21:45:20.731Z,16.92
2022-08-31T21:48:25.670Z,16.92
2022-08-31T21:51:36.283Z,17.70
2022-08-31T21:54:40.826Z,15.98
2022-08-31T21:57:43.419Z,16.45
2022-08-31T22:00:44.723Z,16.90
2022-08-31T22:03:53.999Z,17.33
2022-08-31T22:06:59.668Z,18.38
2022-08-31T22:10:02.875Z,17.65
2022-08-31T22:13:05.718Z,17.20
2022-08-31T22:16:13.279Z,18.58
2022-08-31T22:19:21.363Z,17.75
2022-08-31T22:22:22.771Z,17.63
2022-08-31T22:25:24.286Z,18.27
2022-08-31T22:28:27.848Z,17.17
2022-08-31T22:31:28.957Z,18.45
2022-08-31T22:34:30.452Z,19.38
2022-08-31T22:37:34.256Z,18.38
2022-08-31T22:40:38.961Z,17.92
2022-08-31T22:43:41.086Z,18.88
2022-08-31T22:46:43.487Z,20.83
2022-08-31T22:49:44.484Z,19.10
2022-08-31T22:52:46.717Z,18.98
2022-08-31T22:55:47.821Z,19.80
2022-08-31T22:58:49.768Z,21.52
2022-08-31T23:01:55.252Z,21.77
2022-08-31T23:04:58.023Z,19.25
2022-08-31T23:07:58.952Z,19.08
2022-08-31T23:10:59.751Z,20.70
2022-08-31T23:14:06.641Z,21.30
2022-08-31T23:20:16.846Z,21.13
2022-08-31T23:23:17.662Z,23.95
2022-08-31T23:26:21.156Z,22.35
2022-08-31T23:29:22.242Z,22.77
2022-08-31T23:32:28.007Z,23.42
2022-08-31T23:35:29.366Z,24.25
2022-08-31T23:38:33.188Z,24.52
2022-08-31T23:41:38.830Z,25.35
2022-08-31T23:44:46.655Z,24.70
2022-08-31T23:47:47.922Z,23.48
2022-08-31T23:50:51.136Z,25.73
2022-08-31T23:53:55.882Z,23.92
2022-08-31T23:56:57.939Z,25.52
